^^
Station Historical Data
Daily Summary for July 23, 2017 Units:  English    Metric   Both
« Previous Day
Next Day »
Daily Weekly Monthly Yearly Custom
  High: Low: Average:
Temperature: 81.2 °F 70.1 °F 74.2 °F
Dew Point: 70.4 °F 65.6 °F 68.1 °F
Humidity: 96% 64% 82%
Wind Speed: 3.0mph 0.0mph 0.5mph
Wind Gust: 8.0mph - -
Wind- - SW
Pressure: 29.87 in 29.73 in -
Precipitation: 0.02 in    
Historical Graphs
 
 
Tabular Data for July 23, 2017
Time Temperature Dew Point Pressure Wind Wind Speed Wind Gust Humidity Rainfall Rate (Hourly) Conditions
00:00 72.2 °F 68.1 °F 29.75 in Calm   1.0 mph 87% 0.00 in RA
00:15 71.8 °F 68.4 °F 29.75 in Calm   1.0 mph 89% 0.01 in RA
00:30 71.5 °F 68.7 °F 29.75 in Calm     91% 0.00 in BKN
00:45 71.4 °F 68.9 °F 29.75 in Calm     92% 0.01 in BKN
01:00 71.1 °F 69.0 °F 29.75 in Calm     93% 0.00 in BKN
02:15 70.9 °F 68.8 °F 29.73 in Calm     93% 0.00 in BKN
02:30 71.0 °F 68.9 °F 29.73 in Calm   1.0 mph 93% 0.00 in BKN
02:45 70.8 °F 68.7 °F 29.73 in Calm   1.0 mph 93% 0.00 in BKN
03:00 70.6 °F 68.5 °F 29.73 in Calm     93% 0.00 in BKN
03:15 70.7 °F 68.9 °F 29.74 in Calm     94% 0.00 in BKN
03:30 70.9 °F 69.1 °F 29.73 in Calm     94% 0.00 in BKN
03:45 71.2 °F 69.4 °F 29.73 in Calm     94% 0.00 in BKN
04:00 71.3 °F 69.5 °F 29.73 in Calm     94% 0.00 in BKN
04:15 71.5 °F 70.0 °F 29.73 in South 1.0 mph 2.0 mph 95% 0.00 in BKN
04:30 71.6 °F 70.0 °F 29.74 in Calm   1.0 mph 95% 0.00 in BKN
04:45 71.6 °F 70.1 °F 29.74 in Calm     95% 0.00 in BKN
05:00 71.6 °F 70.1 °F 29.75 in Calm   2.0 mph 95% 0.00 in BKN
05:15 71.6 °F 70.1 °F 29.75 in Calm   2.0 mph 95% 0.00 in BKN
05:30 71.6 °F 70.1 °F 29.75 in Calm   1.0 mph 95% 0.00 in BKN
05:45 71.5 °F 70.3 °F 29.75 in Calm   2.0 mph 96% 0.00 in BKN
06:00 71.5 °F 70.3 °F 29.75 in Calm   2.0 mph 96% 0.00 in BKN
06:15 71.4 °F 70.2 °F 29.75 in Calm     96% 0.00 in BKN
06:30 71.5 °F 70.3 °F 29.76 in Calm     96% 0.00 in BKN
06:45 71.6 °F 70.4 °F 29.76 in Calm   1.0 mph 96% 0.00 in BKN
07:00 71.4 °F 69.9 °F 29.76 in Calm     95% 0.00 in BKN
07:15 71.5 °F 70.0 °F 29.77 in Calm   3.0 mph 95% 0.00 in BKN
07:30 71.4 °F 68.9 °F 29.77 in Calm   2.0 mph 92% 0.00 in BKN
07:45 71.8 °F 69.4 °F 29.77 in Calm   1.0 mph 92% 0.00 in BKN
08:00 72.2 °F 69.7 °F 29.77 in Calm     92% 0.00 in BKN
08:15 73.0 °F 69.8 °F 29.78 in Calm   1.0 mph 90% 0.00 in BKN
08:30 73.5 °F 69.4 °F 29.79 in Calm   2.0 mph 87% 0.00 in BKN
08:45 74.3 °F 68.8 °F 29.79 in NW 1.0 mph 3.0 mph 83% 0.00 in BKN
09:00 74.9 °F 68.7 °F 29.79 in Calm   4.0 mph 81% 0.00 in BKN
09:15 76.7 °F 68.2 °F 29.79 in Calm   3.0 mph 75% 0.00 in BKN
09:45 76.9 °F 65.6 °F 29.80 in NNW 2.0 mph 6.0 mph 68% 0.00 in BKN
10:00 77.5 °F 66.5 °F 29.80 in Calm   5.0 mph 69% 0.00 in BKN
10:15 77.5 °F 66.5 °F 29.80 in Calm   4.0 mph 69% 0.00 in BKN
10:30 78.6 °F 66.7 °F 29.80 in Calm   4.0 mph 67% 0.00 in BKN
10:45 78.1 °F 66.6 °F 29.80 in NNW 3.0 mph 6.0 mph 68% 0.00 in BKN
11:00 78.6 °F 67.2 °F 29.81 in Calm   5.0 mph 68% 0.00 in BKN
11:15 79.3 °F 67.0 °F 29.81 in WNW 1.0 mph 5.0 mph 66% 0.00 in BKN
11:30 79.7 °F 67.8 °F 29.82 in Calm   6.0 mph 67% 0.00 in BKN
11:45 80.6 °F 67.8 °F 29.82 in Calm   5.0 mph 65% 0.00 in BKN
12:00 80.1 °F 68.1 °F 29.82 in Calm   6.0 mph 67% 0.00 in BKN
12:15 80.2 °F 67.4 °F 29.82 in NE 2.0 mph 7.0 mph 65% 0.00 in BKN
12:30 80.8 °F 68.4 °F 29.82 in NW 2.0 mph 5.0 mph 66% 0.00 in BKN
12:45 80.4 °F 68.0 °F 29.83 in SSW 2.0 mph 7.0 mph 66% 0.00 in BKN
13:00 79.2 °F 67.7 °F 29.83 in North 3.0 mph 6.0 mph 68% 0.00 in BKN
13:15 80.2 °F 67.4 °F 29.83 in South 2.0 mph 5.0 mph 65% 0.00 in BKN
13:30 80.8 °F 67.5 °F 29.82 in South 1.0 mph 8.0 mph 64% 0.00 in BKN
13:45 81.2 °F 68.3 °F 29.83 in North 2.0 mph 8.0 mph 65% 0.00 in BKN
14:00 80.2 °F 67.4 °F 29.83 in West 2.0 mph 6.0 mph 65% 0.00 in BKN
14:15 79.7 °F 66.5 °F 29.83 in WSW 2.0 mph 5.0 mph 64% 0.00 in BKN
14:30 79.4 °F 67.0 °F 29.83 in SSW 1.0 mph 3.0 mph 66% 0.00 in BKN
14:45 79.0 °F 67.1 °F 29.83 in Calm   3.0 mph 67% 0.00 in BKN
15:00 77.8 °F 67.2 °F 29.82 in Calm   4.0 mph 70% 0.00 in BKN
15:15 77.5 °F 67.0 °F 29.82 in Calm   2.0 mph 70% 0.00 in BKN
15:30 76.6 °F 68.1 °F 29.82 in Calm   4.0 mph 75% 0.00 in BKN
15:45 75.6 °F 68.3 °F 29.82 in WSW 1.0 mph 7.0 mph 78% 0.00 in BKN
16:00 75.5 °F 68.9 °F 29.82 in ENE 1.0 mph 4.0 mph 80% 0.00 in BKN
16:15 75.7 °F 68.7 °F 29.82 in Calm   3.0 mph 79% 0.00 in BKN
16:30 75.5 °F 68.9 °F 29.83 in East 1.0 mph 6.0 mph 80% 0.00 in BKN
16:45 74.7 °F 68.5 °F 29.83 in Calm   7.0 mph 81% 0.00 in BKN
17:00 74.5 °F 68.6 °F 29.83 in WNW 1.0 mph 5.0 mph 82% 0.00 in BKN
17:15 74.4 °F 68.9 °F 29.83 in Calm   5.0 mph 83% 0.00 in BKN
17:30 74.2 °F 68.7 °F 29.83 in Calm   5.0 mph 83% 0.00 in BKN
17:45 74.2 °F 69.1 °F 29.83 in NW 1.0 mph 4.0 mph 84% 0.00 in BKN
18:00 74.0 °F 68.5 °F 29.83 in Calm   5.0 mph 83% 0.00 in BKN
18:15 74.1 °F 69.0 °F 29.83 in North 1.0 mph 6.0 mph 84% 0.00 in BKN
18:30 74.2 °F 69.1 °F 29.83 in Calm   7.0 mph 84% 0.00 in BKN
18:45 73.9 °F 68.4 °F 29.83 in Calm   4.0 mph 83% 0.00 in BKN
19:00 73.4 °F 67.2 °F 29.83 in ESE 1.0 mph 8.0 mph 81% 0.00 in BKN
19:15 73.2 °F 67.4 °F 29.83 in Calm   8.0 mph 82% 0.00 in BKN
19:30 73.0 °F 67.1 °F 29.84 in Calm   3.0 mph 82% 0.00 in BKN
19:45 72.9 °F 67.1 °F 29.84 in NW 1.0 mph 3.0 mph 82% 0.00 in BKN
20:00 72.9 °F 66.7 °F 29.84 in NNW 1.0 mph 4.0 mph 81% 0.00 in BKN
20:15 72.7 °F 66.9 °F 29.85 in Calm   7.0 mph 82% 0.00 in BKN
20:30 72.6 °F 66.8 °F 29.85 in Calm   3.0 mph 82% 0.00 in BKN
20:45 72.5 °F 67.0 °F 29.85 in Calm   3.0 mph 83% 0.00 in BKN
21:00 72.3 °F 67.2 °F 29.86 in Calm   3.0 mph 84% 0.00 in BKN
21:15 72.1 °F 66.6 °F 29.87 in South 1.0 mph 4.0 mph 83% 0.00 in BKN
21:30 71.8 °F 65.7 °F 29.87 in SSW 1.0 mph 5.0 mph 81% 0.00 in BKN
21:45 71.6 °F 65.8 °F 29.87 in WNW 1.0 mph 3.0 mph 82% 0.00 in BKN
22:00 71.3 °F 65.9 °F 29.87 in Calm   3.0 mph 83% 0.00 in BKN
22:15 71.0 °F 65.9 °F 29.86 in Calm   3.0 mph 84% 0.00 in OVC
22:30 70.9 °F 65.8 °F 29.86 in Calm   4.0 mph 84% 0.00 in OVC
22:45 70.9 °F 66.2 °F 29.86 in Calm   3.0 mph 85% 0.00 in OVC
23:00 71.0 °F 66.6 °F 29.86 in NW 1.0 mph 4.0 mph 86% 0.00 in OVC
23:15 70.7 °F 66.3 °F 29.86 in NNE 1.0 mph 5.0 mph 86% 0.00 in OVC
23:30 70.4 °F 66.4 °F 29.87 in Calm   7.0 mph 87% 0.00 in OVC
23:45 70.1 °F 66.0 °F 29.87 in NW 1.0 mph 4.0 mph 87% 0.00 in OVC
TarryTown NY Weather
Compliments of Weather Underground - 1.5 mb